Time;durP1;ratioP1;P1;durP2;ratioP2;P2;SDS_P1;SDS_P2;PMS_P1;PMS_P2;Temp;Humidity;BMP_temperature;BMP_pressure;BME280_temperature;BME280_humidity;BME280_pressure;Samples;Min_cycle;Max_cycle;Signal;HPM_P1;HPM_P2
2022/11/07 00:02:14;;;;;;;6.05;2.80;;;9.10;99.90;;;;;;4990890;28;20038;-73
2022/11/07 00:04:40;;;;;;;7.30;2.50;;;9.10;99.90;;;;;;4990336;28;20034;-69
2022/11/07 00:07:06;;;;;;;7.47;2.72;;;9.10;99.90;;;;;;4990891;28;20076;-68
2022/11/07 00:09:32;;;;;;;5.35;2.75;;;9.10;99.90;;;;;;4989162;28;20030;-72
2022/11/07 00:11:58;;;;;;;4.95;2.47;;;9.00;99.90;;;;;;4995177;28;20038;-68
2022/11/07 00:14:23;;;;;;;5.07;2.60;;;9.00;99.90;;;;;;4989743;28;20078;-67
2022/11/07 00:16:49;;;;;;;5.85;2.17;;;9.00;99.90;;;;;;4989177;28;20034;-69
2022/11/07 00:19:18;;;;;;;5.80;2.40;;;9.00;99.90;;;;;;4989644;28;20076;-68
2022/11/07 00:21:44;;;;;;;6.18;2.83;;;9.00;99.90;;;;;;4991425;28;20030;-69
2022/11/07 00:24:10;;;;;;;4.22;2.25;;;9.00;99.90;;;;;;4986923;28;20034;-72
2022/11/07 00:26:36;;;;;;;4.80;2.42;;;9.00;99.90;;;;;;4991183;28;20394;-70
2022/11/07 00:29:03;;;;;;;4.32;2.30;;;9.00;99.90;;;;;;5008956;28;20034;-69
2022/11/07 00:31:29;;;;;;;5.45;2.55;;;9.00;99.90;;;;;;5005046;28;20042;-69
2022/11/07 00:33:56;;;;;;;8.02;2.60;;;9.00;99.90;;;;;;4977666;28;20475;-70
2022/11/07 00:36:24;;;;;;;5.63;2.90;;;9.00;99.90;;;;;;4978963;28;20088;-69
2022/11/07 00:38:50;;;;;;;4.22;2.42;;;9.10;99.90;;;;;;4971720;28;20085;-69
2022/11/07 00:41:15;;;;;;;5.78;2.50;;;9.00;99.90;;;;;;5001944;28;20027;-71
2022/11/07 00:43:41;;;;;;;4.38;2.25;;;9.00;99.90;;;;;;5000586;28;20042;-69
2022/11/07 00:46:09;;;;;;;4.78;2.42;;;9.00;99.90;;;;;;5009594;28;20485;-69
2022/11/07 00:48:35;;;;;;;5.95;2.22;;;9.10;99.90;;;;;;5009748;28;20025;-69
2022/11/07 00:51:09;;;;;;;3.97;2.20;;;9.00;99.90;;;;;;5010453;28;20040;-68
2022/11/07 00:53:36;;;;;;;5.63;2.10;;;9.10;99.90;;;;;;5009442;28;20930;-68
2022/11/07 00:56:03;;;;;;;3.85;2.00;;;9.20;99.90;;;;;;5010283;28;20041;-68
2022/11/07 00:58:29;;;;;;;3.78;2.10;;;9.20;99.90;;;;;;4991579;28;20140;-70
2022/11/07 01:00:55;;;;;;;3.80;1.98;;;9.30;99.90;;;;;;5010172;28;20523;-69
2022/11/07 01:06:05;;;;;;;6.53;2.30;;;9.30;99.90;;;;;;5010087;28;20152;-68
2022/11/07 01:08:31;;;;;;;5.28;1.98;;;9.30;99.90;;;;;;5001971;28;20045;-69
2022/11/07 01:10:58;;;;;;;3.72;1.77;;;9.40;99.90;;;;;;4988832;28;20038;-69
2022/11/07 01:13:24;;;;;;;3.40;1.63;;;9.50;99.90;;;;;;4988380;28;20046;-69
2022/11/07 01:15:49;;;;;;;3.08;1.88;;;9.60;99.90;;;;;;4990459;28;20030;-69
2022/11/07 01:18:15;;;;;;;4.45;1.75;;;9.60;99.90;;;;;;4988678;28;20030;-73
2022/11/07 01:20:41;;;;;;;4.05;1.52;;;9.60;99.90;;;;;;4988005;28;20034;-68
2022/11/07 01:23:16;;;;;;;8.38;1.92;;;9.60;99.90;;;;;;5062164;28;20457;-71
2022/11/07 01:25:41;;;;;;;3.42;1.73;;;9.60;99.90;;;;;;5033002;28;20044;-68
2022/11/07 01:28:08;;;;;;;3.08;1.60;;;9.70;99.90;;;;;;5052309;28;20036;-71
2022/11/07 01:30:41;;;;;;;2.80;1.50;;;9.80;99.90;;;;;;5043881;28;20049;-68
2022/11/07 01:33:08;;;;;;;2.65;1.45;;;9.80;99.90;;;;;;5045894;28;20469;-68
2022/11/07 01:35:34;;;;;;;3.42;1.42;;;9.80;99.90;;;;;;5045031;28;20033;-70
2022/11/07 01:37:59;;;;;;;5.30;1.67;;;9.70;99.90;;;;;;5045841;28;20551;-69
2022/11/07 01:40:25;;;;;;;2.70;1.70;;;9.70;99.90;;;;;;5045074;28;20025;-67
2022/11/07 01:42:51;;;;;;;3.60;1.60;;;9.70;99.90;;;;;;5043386;28;20041;-68
2022/11/07 01:45:24;;;;;;;4.07;1.40;;;9.70;99.90;;;;;;5044960;28;20490;-73
2022/11/07 01:47:51;;;;;;;3.63;1.85;;;9.70;99.90;;;;;;5044821;28;20037;-69
2022/11/07 01:50:17;;;;;;;4.10;1.60;;;9.70;99.90;;;;;;5045207;28;20037;-74
2022/11/07 01:52:46;;;;;;;2.95;1.60;;;9.70;99.90;;;;;;5045268;28;20087;-69
2022/11/07 01:55:20;;;;;;;4.20;1.77;;;9.80;99.90;;;;;;5043944;28;20064;-68
2022/11/07 01:57:56;;;;;;;4.80;1.70;;;9.70;99.90;;;;;;5044220;28;20478;-68
2022/11/07 02:00:23;;;;;;;4.80;1.60;;;9.70;99.90;;;;;;5043298;28;20036;-68
2022/11/07 02:02:55;;;;;;;2.83;1.50;;;9.80;99.90;;;;;;5044659;28;20095;-69
2022/11/07 02:05:52;;;;;;;3.30;1.40;;;9.70;99.90;;;;;;5044580;28;20043;-69
2022/11/07 02:08:19;;;;;;;2.97;1.50;;;9.70;99.90;;;;;;5043206;28;20435;-73
2022/11/07 02:10:46;;;;;;;2.97;1.40;;;9.60;99.90;;;;;;5044780;28;20031;-68
2022/11/07 02:13:18;;;;;;;2.25;1.27;;;9.50;99.90;;;;;;5045324;28;20037;-67
2022/11/07 02:15:44;;;;;;;5.53;1.40;;;9.50;99.90;;;;;;5044244;28;20125;-68
2022/11/07 02:18:10;;;;;;;2.75;1.60;;;9.40;99.90;;;;;;5045095;28;20116;-69
2022/11/07 02:20:35;;;;;;;2.25;1.30;;;9.30;99.90;;;;;;5043025;28;20033;-68
2022/11/07 02:23:54;;;;;;;3.10;1.40;;;9.30;99.90;;;;;;5043415;28;20094;-69
2022/11/07 02:26:20;;;;;;;6.35;1.50;;;9.20;99.90;;;;;;5043007;28;20053;-73
2022/11/07 02:28:48;;;;;;;3.80;1.65;;;9.10;99.90;;;;;;5044635;28;20063;-69
2022/11/07 02:31:13;;;;;;;3.17;1.40;;;9.10;99.90;;;;;;5044603;28;20033;-67
2022/11/07 02:33:40;;;;;;;3.83;1.42;;;9.00;99.90;;;;;;5034767;28;20026;-69
2022/11/07 02:36:12;;;;;;;3.42;1.50;;;9.00;99.90;;;;;;5038165;28;20049;-68
2022/11/07 02:38:38;;;;;;;5.32;1.45;;;9.10;99.90;;;;;;5030528;28;20235;-68
2022/11/07 02:41:08;;;;;;;2.28;1.30;;;9.10;99.90;;;;;;5031107;28;20533;-70
2022/11/07 02:43:36;;;;;;;;;;;9.20;99.90;;;;;;5031041;28;20139;-68
2022/11/07 02:46:06;;;;;;;3.08;1.50;;;9.20;99.90;;;;;;5031203;28;19916;-69
2022/11/07 02:48:41;;;;;;;3.67;1.40;;;9.20;99.90;;;;;;5049406;28;20044;-68
2022/11/07 02:51:06;;;;;;;3.15;1.50;;;9.30;99.90;;;;;;5046904;28;20048;-69
2022/11/07 02:53:32;;;;;;;3.97;1.60;;;9.20;99.90;;;;;;5029733;28;20029;-68
2022/11/07 02:55:57;;;;;;;2.67;1.38;;;9.30;99.90;;;;;;5031174;28;20025;-69
2022/11/07 02:58:23;;;;;;;2.90;1.10;;;9.30;99.90;;;;;;5030281;28;20025;-72
2022/11/07 03:00:48;;;;;;;2.58;1.50;;;9.40;99.90;;;;;;5031052;28;20489;-70
2022/11/07 03:03:14;;;;;;;3.53;1.35;;;9.40;99.90;;;;;;5030715;28;20512;-67
2022/11/07 03:05:40;;;;;;;2.72;1.35;;;9.40;99.90;;;;;;5029077;28;20018;-69
2022/11/07 03:08:05;;;;;;;3.33;1.70;;;9.40;99.90;;;;;;5031004;28;20026;-68
2022/11/07 03:10:31;;;;;;;2.55;1.30;;;9.30;99.90;;;;;;5029297;28;20033;-68
2022/11/07 03:12:57;;;;;;;1.92;1.13;;;9.20;99.90;;;;;;5030704;28;20033;-70
2022/11/07 03:15:22;;;;;;;1.98;1.17;;;9.20;99.90;;;;;;5028982;28;20033;-74
2022/11/07 03:17:48;;;;;;;3.53;1.20;;;9.20;99.90;;;;;;5029069;28;20025;-68
2022/11/07 03:20:14;;;;;;;3.22;1.10;;;9.30;99.90;;;;;;5030519;28;20107;-69
2022/11/07 03:22:39;;;;;;;2.30;1.10;;;9.40;99.90;;;;;;5029292;28;20152;-67
2022/11/07 03:25:06;;;;;;;2.30;1.10;;;9.40;99.90;;;;;;5029728;28;20040;-68
2022/11/07 03:27:31;;;;;;;3.28;1.45;;;9.40;99.90;;;;;;5033948;28;20030;-70
2022/11/07 03:29:57;;;;;;;1.48;0.98;;;9.40;99.90;;;;;;5032245;28;20040;-69
2022/11/07 03:32:23;;;;;;;2.28;1.27;;;9.60;99.90;;;;;;5046093;28;20045;-73
2022/11/07 03:34:48;;;;;;;2.85;1.10;;;9.70;99.90;;;;;;5045859;28;20056;-69
2022/11/07 03:37:14;;;;;;;1.98;1.17;;;9.70;99.90;;;;;;5047454;28;20076;-68
2022/11/07 03:39:39;;;;;;;3.28;1.10;;;9.70;99.90;;;;;;5043982;28;20044;-68
2022/11/07 03:42:05;;;;;;;3.63;1.30;;;9.70;99.90;;;;;;5047234;28;20096;-68
2022/11/07 03:44:31;;;;;;;4.80;1.17;;;9.70;99.90;;;;;;5030310;28;20029;-69
2022/11/07 03:46:56;;;;;;;3.33;1.48;;;9.80;99.90;;;;;;5036258;28;20041;-68
2022/11/07 03:49:22;;;;;;;2.40;1.20;;;9.80;99.90;;;;;;5028239;28;20083;-73
2022/11/07 03:51:47;;;;;;;1.85;1.00;;;9.80;99.90;;;;;;5043693;28;20044;-69
2022/11/07 03:54:13;;;;;;;3.47;1.30;;;9.80;99.90;;;;;;5047066;28;20549;-69
2022/11/07 03:56:38;;;;;;;3.50;1.20;;;9.80;99.90;;;;;;5022087;28;20021;-70
2022/11/07 03:59:04;;;;;;;2.05;1.10;;;9.80;99.90;;;;;;5028914;28;20030;-70
2022/11/07 04:01:30;;;;;;;3.15;1.67;;;9.90;99.90;;;;;;5029119;28;20045;-68
2022/11/07 04:03:55;;;;;;;2.55;1.08;;;9.90;99.90;;;;;;5029013;28;20437;-68
2022/11/07 04:06:22;;;;;;;3.83;1.23;;;9.90;99.90;;;;;;5030005;28;20128;-70
2022/11/07 04:08:47;;;;;;;1.88;1.05;;;9.90;99.90;;;;;;5029103;28;20072;-70
2022/11/07 04:17:17;;;;;;;3.15;1.50;;;9.80;99.90;;;;;;5029180;28;20025;-68
2022/11/07 04:17:27;;;;;;;3.40;1.35;;;9.80;99.90;;;;;;5027787;28;20085;-68
2022/11/07 04:19:28;;;;;;;2.80;1.38;;;9.80;99.90;;;;;;5024525;28;20033;-72
2022/11/07 04:21:54;;;;;;;2.25;1.30;;;9.80;99.90;;;;;;5029172;28;20075;-71
2022/11/07 04:24:19;;;;;;;5.47;1.52;;;9.80;99.90;;;;;;5029424;28;20033;-72
2022/11/07 04:29:29;;;;;;;4.43;1.30;;;9.90;99.90;;;;;;5028745;28;20176;-70
2022/11/07 04:31:55;;;;;;;3.72;1.30;;;9.80;99.90;;;;;;5028784;28;20108;-69
2022/11/07 04:34:20;;;;;;;5.05;1.23;;;9.80;99.90;;;;;;5029273;28;20538;-70
2022/11/07 04:36:46;;;;;;;3.63;1.50;;;9.90;99.90;;;;;;5028485;28;20025;-70
2022/11/07 04:39:12;;;;;;;5.50;1.35;;;9.90;99.90;;;;;;5029242;28;20488;-70
2022/11/07 04:41:37;;;;;;;4.15;1.30;;;9.90;99.90;;;;;;5028030;28;20037;-68
2022/11/07 04:44:03;;;;;;;2.92;1.10;;;9.90;99.90;;;;;;5029196;28;20040;-70
2022/11/07 04:46:29;;;;;;;2.90;1.33;;;9.80;99.90;;;;;;5027484;28;20038;-75
2022/11/07 04:48:55;;;;;;;2.00;1.17;;;9.70;99.90;;;;;;5027698;28;20036;-69
2022/11/07 04:51:21;;;;;;;3.40;1.35;;;9.60;99.90;;;;;;5028449;28;20092;-70
2022/11/07 04:53:47;;;;;;;4.38;1.35;;;9.60;99.90;;;;;;5028080;28;20668;-72
2022/11/07 04:56:13;;;;;;;4.43;1.40;;;9.70;99.90;;;;;;5028570;28;20151;-69
2022/11/07 04:58:38;;;;;;;3.47;1.20;;;9.70;99.90;;;;;;5028205;28;20465;-70
2022/11/07 05:01:04;;;;;;;5.75;1.38;;;9.80;99.90;;;;;;5027317;28;20029;-69
2022/11/07 05:03:29;;;;;;;2.75;1.20;;;9.80;99.90;;;;;;5028452;28;20044;-74
2022/11/07 05:05:55;;;;;;;6.18;1.30;;;9.80;99.90;;;;;;5028489;28;20061;-68
2022/11/07 05:08:21;;;;;;;5.53;1.40;;;9.80;99.90;;;;;;5028886;28;20619;-70
2022/11/07 05:10:46;;;;;;;1.83;1.20;;;9.70;99.90;;;;;;5027477;28;20847;-70
2022/11/07 05:13:12;;;;;;;2.75;1.45;;;9.70;99.90;;;;;;5028615;28;20068;-70
2022/11/07 05:15:38;;;;;;;4.40;1.17;;;9.70;99.90;;;;;;5027098;28;20033;-71
2022/11/07 05:18:03;;;;;;;5.15;1.10;;;9.80;99.90;;;;;;5028075;28;20044;-71
2022/11/07 05:20:35;;;;;;;3.95;1.30;;;9.70;99.90;;;;;;5027027;28;20455;-73
2022/11/07 05:23:19;;;;;;;3.63;1.65;;;9.70;99.90;;;;;;5027210;28;20056;-72
2022/11/07 05:25:49;;;;;;;2.10;1.13;;;9.60;99.90;;;;;;5025745;28;20040;-70
2022/11/07 05:28:29;;;;;;;2.83;1.25;;;9.50;99.90;;;;;;5029688;28;20039;-70
2022/11/07 05:30:59;;;;;;;2.17;1.27;;;9.40;99.90;;;;;;5029293;28;20038;-70
2022/11/07 05:33:25;;;;;;;6.45;1.40;;;9.30;99.90;;;;;;5024637;28;20053;-71
2022/11/07 05:35:51;;;;;;;4.63;1.27;;;9.30;99.90;;;;;;5016179;28;20041;-68
2022/11/07 05:38:17;;;;;;;4.72;1.67;;;9.30;99.90;;;;;;5019440;28;20030;-69
2022/11/07 05:40:42;;;;;;;2.95;1.20;;;9.40;99.90;;;;;;5026138;28;20032;-70
2022/11/07 05:43:11;;;;;;;2.58;1.30;;;9.40;99.90;;;;;;5028468;28;20041;-69
2022/11/07 05:45:37;;;;;;;3.50;1.60;;;9.40;99.90;;;;;;5029974;28;20037;-71
2022/11/07 05:48:06;;;;;;;2.85;1.30;;;9.40;99.90;;;;;;5025952;28;20144;-69
2022/11/07 05:50:32;;;;;;;6.53;1.52;;;9.30;99.90;;;;;;5027077;28;20110;-75
2022/11/07 05:52:57;;;;;;;2.60;1.52;;;9.20;99.90;;;;;;5026681;28;20120;-69
2022/11/07 05:55:24;;;;;;;5.95;1.52;;;9.20;99.90;;;;;;5026925;28;20030;-71
2022/11/07 05:57:50;;;;;;;5.63;2.30;;;9.10;99.90;;;;;;5025133;28;20666;-68
2022/11/07 06:00:17;;;;;;;3.03;1.77;;;9.00;99.90;;;;;;5028340;28;20029;-70
2022/11/07 06:02:43;;;;;;;4.65;1.65;;;8.90;99.90;;;;;;5026037;28;20038;-69
2022/11/07 06:05:09;;;;;;;4.55;1.88;;;8.80;99.90;;;;;;5027357;28;20045;-71
2022/11/07 06:07:36;;;;;;;4.63;1.83;;;8.80;99.90;;;;;;5027121;28;20057;-73
2022/11/07 06:10:03;;;;;;;3.10;1.65;;;8.80;99.90;;;;;;5030404;28;20040;-71
2022/11/07 06:12:29;;;;;;;5.95;1.80;;;8.90;99.90;;;;;;5012107;28;20036;-71
2022/11/07 06:14:54;;;;;;;2.78;1.50;;;8.90;99.90;;;;;;5017314;28;20973;-72
2022/11/07 06:17:20;;;;;;;6.25;1.88;;;9.00;99.90;;;;;;5031832;28;20093;-69
2022/11/07 06:19:46;;;;;;;3.75;1.98;;;9.10;99.90;;;;;;5030366;28;20117;-68
2022/11/07 06:22:11;;;;;;;5.32;2.30;;;9.10;99.90;;;;;;5030382;28;20079;-71
2022/11/07 06:24:37;;;;;;;4.10;2.13;;;9.00;99.90;;;;;;5030939;28;20075;-68
2022/11/07 06:27:02;;;;;;;6.03;2.00;;;8.90;99.90;;;;;;5032370;28;20034;-70
2022/11/07 06:29:28;;;;;;;5.75;1.75;;;8.90;99.90;;;;;;5037689;28;20040;-71
2022/11/07 06:31:54;;;;;;;4.78;2.15;;;9.00;99.90;;;;;;5050403;28;20083;-70
2022/11/07 06:34:19;;;;;;;5.10;2.38;;;9.10;99.90;;;;;;5042841;28;20036;-70
2022/11/07 06:36:45;;;;;;;4.75;2.30;;;9.10;99.90;;;;;;5030637;28;20454;-69
2022/11/07 06:39:11;;;;;;;5.63;2.20;;;9.10;99.90;;;;;;5030383;28;20030;-69
2022/11/07 06:41:37;;;;;;;4.63;2.15;;;9.20;99.90;;;;;;5030596;28;20516;-72
2022/11/07 06:44:02;;;;;;;5.85;2.53;;;9.20;99.90;;;;;;5030424;28;20104;-68
2022/11/07 06:46:28;;;;;;;19.75;8.70;;;9.30;99.90;;;;;;5031076;28;20038;-69
2022/11/07 06:48:54;;;;;;;80.30;32.92;;;9.30;99.90;;;;;;5029004;28;20124;-70
2022/11/07 06:51:19;;;;;;;99.22;37.78;;;9.40;99.90;;;;;;5037681;28;20111;-70
2022/11/07 06:53:45;;;;;;;84.60;32.67;;;9.40;99.90;;;;;;5048032;28;20032;-68
2022/11/07 06:56:14;;;;;;;42.10;17.77;;;9.40;99.90;;;;;;5038485;28;20478;-70
2022/11/07 06:58:40;;;;;;;26.83;11.88;;;9.50;99.90;;;;;;5028970;28;20458;-69
2022/11/07 07:01:11;;;;;;;11.02;5.25;;;9.50;99.90;;;;;;5030142;28;20061;-68
2022/11/07 07:03:37;;;;;;;6.43;2.97;;;9.60;99.90;;;;;;5033512;28;20033;-75
2022/11/07 07:06:06;;;;;;;10.25;4.75;;;9.50;99.90;;;;;;5033026;28;20560;-69
2022/11/07 07:08:32;;;;;;;5.40;3.10;;;9.60;99.90;;;;;;5050896;28;20159;-70
2022/11/07 07:11:05;;;;;;;6.55;2.83;;;9.60;99.90;;;;;;5047538;28;20146;-69
2022/11/07 07:13:31;;;;;;;6.65;2.88;;;9.60;99.90;;;;;;5041595;28;20108;-69
2022/11/07 07:15:58;;;;;;;5.60;2.45;;;9.60;99.90;;;;;;5028756;28;20746;-69
2022/11/07 07:18:24;;;;;;;5.63;2.25;;;9.60;99.90;;;;;;5029975;28;20040;-72
2022/11/07 07:21:00;;;;;;;5.60;2.20;;;9.60;99.90;;;;;;5027968;28;20033;-70
2022/11/07 07:23:26;;;;;;;4.75;2.42;;;9.70;99.90;;;;;;5031169;28;20041;-69
2022/11/07 07:25:51;;;;;;;4.53;2.58;;;9.70;99.90;;;;;;5043384;28;20034;-70
2022/11/07 07:28:17;;;;;;;8.48;2.55;;;9.70;99.90;;;;;;5027174;28;20052;-70
2022/11/07 07:30:42;;;;;;;9.25;4.03;;;9.70;99.90;;;;;;5029353;28;20756;-68
2022/11/07 07:33:08;;;;;;;9.00;4.43;;;9.70;99.90;;;;;;5029295;28;20036;-70
2022/11/07 07:35:34;;;;;;;7.13;4.00;;;9.80;99.90;;;;;;5030142;28;20124;-70
2022/11/07 07:37:59;;;;;;;9.65;4.45;;;9.70;99.90;;;;;;5029077;28;20026;-70
2022/11/07 07:40:25;;;;;;;7.57;3.80;;;9.70;99.90;;;;;;5029933;28;20108;-70
2022/11/07 07:42:50;;;;;;;8.45;3.80;;;9.70;99.90;;;;;;5026413;28;20037;-71
2022/11/07 07:45:16;;;;;;;5.70;3.35;;;9.80;99.90;;;;;;5029781;28;20713;-69
2022/11/07 07:47:42;;;;;;;5.35;2.97;;;9.90;99.90;;;;;;5032518;28;20029;-68
2022/11/07 07:50:09;;;;;;;7.03;3.42;;;10.10;99.90;;;;;;5049960;28;20029;-70
2022/11/07 07:52:35;;;;;;;9.13;3.30;;;10.20;99.90;;;;;;5044624;28;20513;-70
2022/11/07 07:55:00;;;;;;;6.28;3.08;;;10.40;99.90;;;;;;5028938;28;20028;-69
2022/11/07 07:57:26;;;;;;;8.23;3.88;;;10.50;99.90;;;;;;5031130;28;20033;-68
2022/11/07 07:59:52;;;;;;;4.20;2.42;;;10.70;99.90;;;;;;5024620;28;20037;-68
2022/11/07 08:02:17;;;;;;;7.13;2.30;;;10.80;99.90;;;;;;5025092;28;20034;-69
2022/11/07 08:04:43;;;;;;;4.43;2.30;;;11.00;99.90;;;;;;5031535;28;20033;-71
2022/11/07 08:07:09;;;;;;;4.68;1.95;;;11.10;99.90;;;;;;5030009;28;20084;-71
2022/11/07 08:09:35;;;;;;;5.55;2.35;;;11.20;99.90;;;;;;5027785;28;20065;-70
2022/11/07 08:12:05;;;;;;;5.25;2.60;;;11.30;99.90;;;;;;5026935;28;20029;-70
2022/11/07 08:14:31;;;;;;;6.00;1.83;;;11.30;99.90;;;;;;5028390;28;20036;-69
2022/11/07 08:16:57;;;;;;;5.38;2.05;;;11.30;99.90;;;;;;5028913;28;20121;-70
2022/11/07 08:19:23;;;;;;;10.13;2.22;;;11.40;99.90;;;;;;5028574;28;20061;-70
2022/11/07 08:21:49;;;;;;;7.78;2.00;;;11.50;99.90;;;;;;5028197;28;20100;-71
2022/11/07 08:24:14;;;;;;;2.83;1.30;;;11.60;99.90;;;;;;5029220;28;20033;-70
2022/11/07 08:26:40;;;;;;;7.25;1.90;;;11.70;99.90;;;;;;5027381;28;20057;-75
2022/11/07 08:29:06;;;;;;;5.95;1.70;;;11.80;99.90;;;;;;5028493;28;20670;-67
2022/11/07 08:31:32;;;;;;;6.55;1.45;;;11.90;99.90;;;;;;5030027;28;20033;-67
2022/11/07 08:33:59;;;;;;;6.65;1.85;;;11.90;99.90;;;;;;5048676;28;20396;-70
2022/11/07 08:36:25;;;;;;;5.72;1.70;;;12.00;99.90;;;;;;5042555;28;20355;-69
2022/11/07 08:38:52;;;;;;;4.57;1.73;;;12.10;99.90;;;;;;5028346;28;20113;-69
2022/11/07 08:41:18;;;;;;;4.18;1.60;;;12.10;99.90;;;;;;5026426;28;20088;-70
2022/11/07 08:43:43;;;;;;;5.07;1.73;;;12.10;99.90;;;;;;5045802;28;20028;-74
2022/11/07 08:46:09;;;;;;;5.22;1.40;;;12.10;99.90;;;;;;5045977;28;20347;-71
2022/11/07 08:48:34;;;;;;;4.80;1.70;;;12.10;99.90;;;;;;5028556;28;20037;-71
2022/11/07 08:51:03;;;;;;;5.20;1.45;;;12.20;99.90;;;;;;5026740;28;20025;-71
2022/11/07 08:53:30;;;;;;;9.57;1.63;;;12.20;99.90;;;;;;5014011;28;20038;-69
2022/11/07 08:56:03;;;;;;;9.27;1.90;;;12.20;99.90;;;;;;5027727;28;20083;-68
2022/11/07 08:58:29;;;;;;;4.50;1.63;;;12.20;99.90;;;;;;5029304;28;20064;-70
2022/11/07 09:00:55;;;;;;;10.75;1.80;;;12.30;99.90;;;;;;5026378;28;20431;-69
2022/11/07 09:03:20;;;;;;;7.25;2.53;;;12.30;99.90;;;;;;5028654;28;20087;-70
2022/11/07 09:05:46;;;;;;;5.47;1.77;;;12.40;99.90;;;;;;5031503;28;20108;-70
2022/11/07 09:08:12;;;;;;;6.75;2.13;;;12.40;99.90;;;;;;5047778;28;20428;-71
2022/11/07 09:10:37;;;;;;;5.18;1.42;;;12.40;99.90;;;;;;5043304;28;20068;-71
2022/11/07 09:13:03;;;;;;;4.05;1.48;;;12.40;99.90;;;;;;5027655;28;20025;-69
2022/11/07 09:15:32;;;;;;;5.40;2.03;;;12.40;99.90;;;;;;5027081;28;20032;-72
2022/11/07 09:18:04;;;;;;;4.75;1.75;;;12.30;99.90;;;;;;5027628;28;20052;-69
2022/11/07 09:20:31;;;;;;;7.30;1.60;;;12.30;99.90;;;;;;5028747;28;20065;-70
2022/11/07 09:22:58;;;;;;;4.38;1.67;;;12.30;99.90;;;;;;5047133;28;20335;-71
2022/11/07 09:25:24;;;;;;;4.85;1.60;;;12.30;99.90;;;;;;5041419;28;20064;-70
2022/11/07 09:27:50;;;;;;;6.38;1.67;;;12.30;99.90;;;;;;5026089;28;20026;-70
2022/11/07 09:30:19;;;;;;;6.47;1.83;;;12.40;99.90;;;;;;5028455;28;20506;-67
2022/11/07 09:32:45;;;;;;;5.18;1.65;;;12.40;99.90;;;;;;5026508;28;20060;-75
2022/11/07 09:35:12;;;;;;;5.30;2.00;;;12.40;99.90;;;;;;5027955;28;20506;-70
2022/11/07 09:37:39;;;;;;;4.43;1.55;;;12.50;99.90;;;;;;5028293;28;20025;-70
2022/11/07 09:40:11;;;;;;;4.25;1.58;;;12.40;99.90;;;;;;5027674;28;20021;-70
2022/11/07 09:42:47;;;;;;;5.78;1.88;;;12.40;99.90;;;;;;5026535;28;20041;-71
2022/11/07 09:45:12;;;;;;;4.97;1.42;;;12.40;99.90;;;;;;5031173;28;20034;-69
2022/11/07 09:47:48;;;;;;;6.95;1.80;;;12.40;99.90;;;;;;5029845;28;20367;-71
2022/11/07 09:50:24;;;;;;;4.78;1.40;;;12.30;99.90;;;;;;5032311;28;20091;-68
2022/11/07 09:53:02;;;;;;;5.35;1.50;;;12.40;99.90;;;;;;5031162;28;20045;-71
2022/11/07 09:55:34;;;;;;;5.55;1.40;;;12.40;99.90;;;;;;5031533;28;20040;-71
2022/11/07 09:58:04;;;;;;;5.70;1.35;;;12.50;99.90;;;;;;5030111;28;20368;-71
2022/11/07 10:00:31;;;;;;;5.72;1.50;;;12.60;99.90;;;;;;5032206;28;20045;-70
2022/11/07 10:02:58;;;;;;;4.90;1.45;;;12.50;99.90;;;;;;5030090;28;20049;-70
2022/11/07 10:06:02;;;;;;;7.32;1.88;;;12.60;99.90;;;;;;5031683;28;20044;-68
2022/11/07 10:08:46;;;;;;;5.95;1.40;;;12.70;99.90;;;;;;5031885;28;20034;-69
2022/11/07 10:11:33;;;;;;;5.88;1.88;;;12.80;99.90;;;;;;5022810;28;20470;-68
2022/11/07 10:14:27;;;;;;;5.18;1.38;;;13.00;99.90;;;;;;5022874;28;20052;-68
2022/11/07 10:17:20;;;;;;;4.57;1.50;;;13.10;99.90;;;;;;5030970;28;20100;-69
2022/11/07 10:19:58;;;;;;;5.75;1.60;;;13.20;99.90;;;;;;5031601;28;20397;-74
2022/11/07 10:22:33;;;;;;;4.68;1.73;;;13.40;99.90;;;;;;5029822;28;20088;-68
2022/11/07 10:25:25;;;;;;;6.25;1.60;;;13.70;99.90;;;;;;5030769;28;20405;-71
2022/11/07 10:27:58;;;;;;;8.98;1.67;;;13.80;99.90;;;;;;5030740;28;20036;-71
2022/11/07 10:30:24;;;;;;;6.45;1.63;;;13.80;99.90;;;;;;5030556;28;20131;-69
2022/11/07 10:33:42;;;;;;;9.65;1.70;;;13.70;99.90;;;;;;5031342;28;20041;-75
2022/11/07 10:36:22;;;;;;;6.85;1.50;;;13.50;99.90;;;;;;4995231;28;20113;-70
2022/11/07 10:38:48;;;;;;;5.25;1.33;;;13.50;99.90;;;;;;5031247;28;20025;-73
2022/11/07 10:41:16;;;;;;;5.93;1.60;;;13.70;99.90;;;;;;5030349;28;20039;-70
2022/11/07 10:43:45;;;;;;;5.57;1.60;;;13.70;99.90;;;;;;5031251;28;20059;-68
2022/11/07 10:46:26;;;;;;;4.68;1.40;;;13.70;99.90;;;;;;5029977;28;20099;-70
2022/11/07 10:48:59;;;;;;;5.32;1.52;;;13.90;99.90;;;;;;5030495;28;20124;-71
2022/11/07 10:51:40;;;;;;;5.72;1.50;;;14.00;99.90;;;;;;5031039;28;20542;-68
2022/11/07 10:54:16;;;;;;;7.63;1.48;;;14.00;99.90;;;;;;5029235;28;20045;-68
2022/11/07 10:56:44;;;;;;;9.07;1.35;;;14.10;99.90;;;;;;5029472;28;20039;-69
2022/11/07 10:59:25;;;;;;;4.60;1.38;;;14.20;99.90;;;;;;5030313;28;20027;-71
2022/11/07 11:01:56;;;;;;;9.25;1.60;;;14.20;99.90;;;;;;5030323;28;20398;-72
2022/11/07 11:04:24;;;;;;;4.45;1.30;;;14.00;99.90;;;;;;5029994;28;20490;-71
2022/11/07 11:07:05;;;;;;;6.13;1.08;;;13.70;99.90;;;;;;5030663;28;20033;-72
2022/11/07 11:09:33;;;;;;;4.97;1.10;;;13.60;99.90;;;;;;5028028;28;20063;-69
2022/11/07 11:12:29;;;;;;;10.77;1.73;;;13.50;99.90;;;;;;5029271;28;20037;-69
2022/11/07 11:15:10;;;;;;;7.30;1.25;;;13.60;99.90;;;;;;5024848;28;20044;-67
2022/11/07 11:17:36;;;;;;;8.20;1.30;;;13.70;99.90;;;;;;5029337;28;20472;-69
2022/11/07 11:20:03;;;;;;;6.80;1.92;;;13.70;99.90;;;;;;5027507;28;20104;-66
2022/11/07 11:22:28;;;;;;;5.15;1.58;;;13.70;99.90;;;;;;5027371;28;20781;-71
2022/11/07 11:25:15;;;;;;;11.70;1.55;;;13.80;99.90;;;;;;5029049;28;20037;-70
2022/11/07 11:27:43;;;;;;;9.20;1.63;;;13.80;99.90;;;;;;5030313;28;20033;-70
2022/11/07 11:30:17;;;;;;;6.30;1.40;;;13.80;99.90;;;;;;5029443;28;20137;-68
2022/11/07 11:33:11;;;;;;;9.27;1.67;;;13.80;99.90;;;;;;5029149;28;20033;-69
2022/11/07 11:35:48;;;;;;;5.53;1.50;;;14.00;99.90;;;;;;5029152;28;20052;-72
2022/11/07 11:38:37;;;;;;;6.60;1.45;;;14.20;99.90;;;;;;5028814;28;20877;-71
2022/11/07 11:41:15;;;;;;;6.93;1.60;;;14.50;99.90;;;;;;5023870;28;20572;-68
2022/11/07 11:43:53;;;;;;;6.75;1.67;;;14.60;99.90;;;;;;5029627;28;20044;-68
2022/11/07 11:46:23;;;;;;;5.20;1.10;;;14.40;99.90;;;;;;5029984;28;20060;-71
2022/11/07 11:49:20;;;;;;;9.00;1.60;;;14.40;99.90;;;;;;5030329;28;20124;-71
2022/11/07 11:52:00;;;;;;;9.00;1.23;;;14.30;99.90;;;;;;5024744;28;20506;-67
2022/11/07 11:54:26;;;;;;;5.03;1.10;;;14.20;99.90;;;;;;5029931;28;20079;-68
2022/11/07 11:57:16;;;;;;;7.18;1.48;;;14.10;99.90;;;;;;5027632;28;20033;-74
2022/11/07 11:59:57;;;;;;;6.25;1.20;;;14.10;99.90;;;;;;5026460;28;20574;-69
2022/11/07 12:02:26;;;;;;;7.57;1.30;;;14.10;99.90;;;;;;5029948;28;20045;-68
2022/11/07 12:05:22;;;;;;;6.20;1.42;;;14.10;99.90;;;;;;5028464;28;20125;-73
2022/11/07 12:08:13;;;;;;;5.55;1.30;;;14.10;99.90;;;;;;5029418;28;20032;-70
2022/11/07 12:10:58;;;;;;;4.47;1.02;;;14.10;99.90;;;;;;5029838;28;20123;-70
2022/11/07 12:13:42;;;;;;;4.15;1.10;;;14.00;99.90;;;;;;5028592;28;20068;-70
2022/11/07 12:16:37;;;;;;;5.28;1.00;;;14.00;99.90;;;;;;5028709;28;20037;-70
2022/11/07 12:19:24;;;;;;;3.85;1.00;;;13.90;99.90;;;;;;5025212;28;20099;-69
2022/11/07 12:22:20;;;;;;;6.03;1.30;;;13.90;99.90;;;;;;5029439;28;20065;-69
2022/11/07 12:24:55;;;;;;;6.28;1.25;;;13.80;99.90;;;;;;5029688;28;20025;-70
2022/11/07 12:27:53;;;;;;;4.65;1.13;;;13.90;99.90;;;;;;5025866;28;20548;-71
2022/11/07 12:30:27;;;;;;;5.03;1.50;;;14.00;99.90;;;;;;4996259;28;20065;-72
2022/11/07 12:33:02;;;;;;;3.90;1.13;;;14.10;99.90;;;;;;5017431;28;20026;-73
2022/11/07 12:35:53;;;;;;;5.40;1.20;;;14.10;99.90;;;;;;5024657;28;20083;-71
2022/11/07 12:38:46;;;;;;;5.00;1.15;;;14.10;99.90;;;;;;5031702;28;20140;-70
2022/11/07 12:41:19;;;;;;;7.35;1.05;;;14.30;99.90;;;;;;5011689;28;20076;-69
2022/11/07 12:44:08;;;;;;;3.72;1.10;;;14.60;99.90;;;;;;5028609;28;20060;-68
2022/11/07 12:46:33;;;;;;;2.58;1.08;;;14.70;99.90;;;;;;5017141;28;20025;-72
2022/11/07 12:49:04;;;;;;;6.50;1.02;;;14.80;99.90;;;;;;5028019;28;20434;-69
2022/11/07 12:51:36;;;;;;;4.95;1.20;;;14.50;99.90;;;;;;5022168;28;20048;-71
2022/11/07 12:54:25;;;;;;;8.55;1.17;;;14.20;99.90;;;;;;5027231;28;20036;-71
2022/11/07 12:56:52;;;;;;;8.50;1.52;;;14.10;99.90;;;;;;5028517;28;20025;-69
2022/11/07 12:59:28;;;;;;;6.25;1.52;;;13.90;99.90;;;;;;5027039;28;20034;-70
2022/11/07 13:01:57;;;;;;;3.35;0.85;;;13.80;99.90;;;;;;5026676;28;20041;-71
2022/11/07 13:04:31;;;;;;;7.65;1.55;;;13.80;99.90;;;;;;5028190;28;20041;-68
2022/11/07 13:07:10;;;;;;;5.70;1.10;;;13.70;99.90;;;;;;5027784;28;20033;-75
2022/11/07 13:10:01;;;;;;;6.53;1.52;;;13.70;99.90;;;;;;5028933;28;20063;-70
2022/11/07 13:12:41;;;;;;;;;;;13.70;99.90;;;;;;5029404;28;20044;-69
2022/11/07 13:15:12;;;;;;;8.53;1.30;;;13.70;99.90;;;;;;5027488;28;19913;-69
2022/11/07 13:17:41;;;;;;;5.18;1.48;;;13.70;99.90;;;;;;5028351;28;20256;-69